sensor_id;sensor_type;location;lat;lon;timestamp;P1;durP1;ratioP1;P2;durP2;ratioP2
10144;SDS011;5113;41.822;23.564;2023-03-31T00:00:40;8.23;;;4.60;;
10144;SDS011;5113;41.822;23.564;2023-03-31T00:03:47;6.27;;;4.10;;
10144;SDS011;5113;41.822;23.564;2023-03-31T00:06:54;11.10;;;5.13;;
10144;SDS011;5113;41.822;23.564;2023-03-31T00:10:00;9.43;;;5.60;;
10144;SDS011;5113;41.822;23.564;2023-03-31T00:13:22;8.27;;;4.97;;
10144;SDS011;5113;41.822;23.564;2023-03-31T00:16:28;10.30;;;6.17;;
10144;SDS011;5113;41.822;23.564;2023-03-31T00:19:34;12.50;;;4.30;;
10144;SDS011;5113;41.822;23.564;2023-03-31T00:22:42;8.70;;;5.17;;
10144;SDS011;5113;41.822;23.564;2023-03-31T00:25:50;8.57;;;5.43;;
10144;SDS011;5113;41.822;23.564;2023-03-31T00:28:57;8.33;;;5.57;;
10144;SDS011;5113;41.822;23.564;2023-03-31T00:32:04;10.00;;;5.33;;
10144;SDS011;5113;41.822;23.564;2023-03-31T00:35:10;6.20;;;4.73;;
10144;SDS011;5113;41.822;23.564;2023-03-31T00:38:18;9.03;;;5.93;;
10144;SDS011;5113;41.822;23.564;2023-03-31T00:41:32;10.23;;;5.97;;
10144;SDS011;5113;41.822;23.564;2023-03-31T00:44:40;6.73;;;3.90;;
10144;SDS011;5113;41.822;23.564;2023-03-31T00:48:24;2.83;;;2.57;;
10144;SDS011;5113;41.822;23.564;2023-03-31T00:51:31;5.77;;;4.33;;
10144;SDS011;5113;41.822;23.564;2023-03-31T00:54:40;9.10;;;5.10;;
10144;SDS011;5113;41.822;23.564;2023-03-31T00:57:49;8.57;;;4.77;;
10144;SDS011;5113;41.822;23.564;2023-03-31T01:00:57;9.27;;;4.83;;
10144;SDS011;5113;41.822;23.564;2023-03-31T01:04:05;5.93;;;4.03;;
10144;SDS011;5113;41.822;23.564;2023-03-31T01:07:15;5.10;;;3.50;;
10144;SDS011;5113;41.822;23.564;2023-03-31T01:10:28;5.63;;;3.07;;
10144;SDS011;5113;41.822;23.564;2023-03-31T01:13:37;4.23;;;3.53;;
10144;SDS011;5113;41.822;23.564;2023-03-31T01:16:45;5.53;;;3.20;;
10144;SDS011;5113;41.822;23.564;2023-03-31T01:19:55;4.80;;;3.33;;
10144;SDS011;5113;41.822;23.564;2023-03-31T01:23:32;5.50;;;4.10;;
10144;SDS011;5113;41.822;23.564;2023-03-31T01:27:04;8.47;;;4.57;;
10144;SDS011;5113;41.822;23.564;2023-03-31T01:30:32;7.03;;;5.23;;
10144;SDS011;5113;41.822;23.564;2023-03-31T01:33:59;7.77;;;4.17;;
10144;SDS011;5113;41.822;23.564;2023-03-31T01:37:34;6.87;;;3.80;;
10144;SDS011;5113;41.822;23.564;2023-03-31T01:41:08;7.90;;;4.30;;
10144;SDS011;5113;41.822;23.564;2023-03-31T01:44:23;7.50;;;4.33;;
10144;SDS011;5113;41.822;23.564;2023-03-31T01:47:39;8.57;;;5.20;;
10144;SDS011;5113;41.822;23.564;2023-03-31T01:50:52;8.53;;;5.43;;
10144;SDS011;5113;41.822;23.564;2023-03-31T01:54:03;6.30;;;3.97;;
10144;SDS011;5113;41.822;23.564;2023-03-31T01:57:24;2.50;;;2.30;;
10144;SDS011;5113;41.822;23.564;2023-03-31T02:00:37;4.60;;;3.97;;
10144;SDS011;5113;41.822;23.564;2023-03-31T02:03:48;7.03;;;3.83;;
10144;SDS011;5113;41.822;23.564;2023-03-31T02:07:00;4.63;;;3.33;;
10144;SDS011;5113;41.822;23.564;2023-03-31T02:10:12;3.33;;;3.03;;
10144;SDS011;5113;41.822;23.564;2023-03-31T02:13:23;3.80;;;3.40;;
10144;SDS011;5113;41.822;23.564;2023-03-31T02:16:32;3.93;;;3.23;;
10144;SDS011;5113;41.822;23.564;2023-03-31T02:19:46;3.73;;;3.30;;
10144;SDS011;5113;41.822;23.564;2023-03-31T02:22:55;4.70;;;3.33;;
10144;SDS011;5113;41.822;23.564;2023-03-31T02:26:03;4.70;;;3.77;;
10144;SDS011;5113;41.822;23.564;2023-03-31T02:29:14;8.03;;;4.60;;
10144;SDS011;5113;41.822;23.564;2023-03-31T02:32:21;22.70;;;11.13;;
10144;SDS011;5113;41.822;23.564;2023-03-31T02:35:31;17.37;;;8.97;;
10144;SDS011;5113;41.822;23.564;2023-03-31T02:38:41;9.03;;;5.67;;
10144;SDS011;5113;41.822;23.564;2023-03-31T02:41:51;5.23;;;4.17;;
10144;SDS011;5113;41.822;23.564;2023-03-31T02:45:02;8.53;;;5.73;;
10144;SDS011;5113;41.822;23.564;2023-03-31T02:48:09;8.13;;;5.20;;
10144;SDS011;5113;41.822;23.564;2023-03-31T02:55:14;10.07;;;6.90;;
10144;SDS011;5113;41.822;23.564;2023-03-31T02:58:43;9.73;;;5.97;;
10144;SDS011;5113;41.822;23.564;2023-03-31T03:02:09;17.93;;;10.53;;
10144;SDS011;5113;41.822;23.564;2023-03-31T03:05:24;19.57;;;12.00;;
10144;SDS011;5113;41.822;23.564;2023-03-31T03:08:42;16.90;;;11.60;;
10144;SDS011;5113;41.822;23.564;2023-03-31T03:12:08;22.73;;;13.20;;
10144;SDS011;5113;41.822;23.564;2023-03-31T03:15:21;43.93;;;26.07;;
10144;SDS011;5113;41.822;23.564;2023-03-31T03:18:34;17.50;;;10.17;;
10144;SDS011;5113;41.822;23.564;2023-03-31T03:21:41;7.30;;;6.30;;
10144;SDS011;5113;41.822;23.564;2023-03-31T03:24:47;8.30;;;5.60;;
10144;SDS011;5113;41.822;23.564;2023-03-31T03:27:54;8.03;;;5.43;;
10144;SDS011;5113;41.822;23.564;2023-03-31T03:31:00;7.80;;;4.60;;
10144;SDS011;5113;41.822;23.564;2023-03-31T03:34:08;26.57;;;13.77;;
10144;SDS011;5113;41.822;23.564;2023-03-31T03:37:15;36.63;;;18.73;;
10144;SDS011;5113;41.822;23.564;2023-03-31T03:40:21;39.47;;;20.07;;
10144;SDS011;5113;41.822;23.564;2023-03-31T03:43:27;27.47;;;16.80;;
10144;SDS011;5113;41.822;23.564;2023-03-31T03:46:33;50.83;;;29.20;;
10144;SDS011;5113;41.822;23.564;2023-03-31T03:49:40;41.57;;;23.07;;
10144;SDS011;5113;41.822;23.564;2023-03-31T03:52:47;32.97;;;18.27;;
10144;SDS011;5113;41.822;23.564;2023-03-31T03:55:53;21.97;;;12.97;;
10144;SDS011;5113;41.822;23.564;2023-03-31T03:59:00;11.27;;;6.23;;
10144;SDS011;5113;41.822;23.564;2023-03-31T04:02:05;9.57;;;6.43;;
10144;SDS011;5113;41.822;23.564;2023-03-31T04:05:13;7.50;;;5.83;;
10144;SDS011;5113;41.822;23.564;2023-03-31T04:08:19;33.23;;;20.83;;
10144;SDS011;5113;41.822;23.564;2023-03-31T04:11:25;12.43;;;8.57;;
10144;SDS011;5113;41.822;23.564;2023-03-31T04:14:32;10.40;;;6.83;;
10144;SDS011;5113;41.822;23.564;2023-03-31T04:17:38;8.40;;;6.27;;
10144;SDS011;5113;41.822;23.564;2023-03-31T04:20:45;11.77;;;8.20;;
10144;SDS011;5113;41.822;23.564;2023-03-31T04:23:58;12.50;;;8.40;;
10144;SDS011;5113;41.822;23.564;2023-03-31T04:27:05;17.00;;;10.77;;
10144;SDS011;5113;41.822;23.564;2023-03-31T04:30:12;11.47;;;7.97;;
10144;SDS011;5113;41.822;23.564;2023-03-31T04:33:26;31.60;;;16.97;;
10144;SDS011;5113;41.822;23.564;2023-03-31T04:36:34;30.57;;;18.77;;
10144;SDS011;5113;41.822;23.564;2023-03-31T04:39:46;27.57;;;15.43;;
10144;SDS011;5113;41.822;23.564;2023-03-31T04:42:53;17.53;;;10.87;;
10144;SDS011;5113;41.822;23.564;2023-03-31T04:46:00;10.87;;;7.87;;
10144;SDS011;5113;41.822;23.564;2023-03-31T04:49:07;12.53;;;7.67;;
10144;SDS011;5113;41.822;23.564;2023-03-31T04:52:14;9.33;;;6.53;;
10144;SDS011;5113;41.822;23.564;2023-03-31T04:55:21;28.50;;;16.27;;
10144;SDS011;5113;41.822;23.564;2023-03-31T04:58:27;31.30;;;18.60;;
10144;SDS011;5113;41.822;23.564;2023-03-31T05:01:34;27.77;;;16.50;;
10144;SDS011;5113;41.822;23.564;2023-03-31T05:04:41;72.13;;;34.20;;
10144;SDS011;5113;41.822;23.564;2023-03-31T05:07:48;61.57;;;32.00;;
10144;SDS011;5113;41.822;23.564;2023-03-31T05:10:54;39.73;;;21.40;;
10144;SDS011;5113;41.822;23.564;2023-03-31T05:14:01;31.33;;;17.93;;
10144;SDS011;5113;41.822;23.564;2023-03-31T05:17:07;30.17;;;17.50;;
10144;SDS011;5113;41.822;23.564;2023-03-31T05:20:13;29.67;;;17.73;;
10144;SDS011;5113;41.822;23.564;2023-03-31T05:23:21;33.33;;;19.90;;
10144;SDS011;5113;41.822;23.564;2023-03-31T05:26:28;15.50;;;10.80;;
10144;SDS011;5113;41.822;23.564;2023-03-31T05:29:34;12.67;;;8.13;;
10144;SDS011;5113;41.822;23.564;2023-03-31T05:32:40;16.07;;;10.77;;
10144;SDS011;5113;41.822;23.564;2023-03-31T05:35:47;16.53;;;11.37;;
10144;SDS011;5113;41.822;23.564;2023-03-31T05:38:55;18.00;;;13.27;;
10144;SDS011;5113;41.822;23.564;2023-03-31T05:42:02;28.53;;;14.13;;
10144;SDS011;5113;41.822;23.564;2023-03-31T05:45:09;26.67;;;14.73;;
10144;SDS011;5113;41.822;23.564;2023-03-31T05:48:16;15.83;;;10.37;;
10144;SDS011;5113;41.822;23.564;2023-03-31T05:51:22;17.43;;;10.93;;
10144;SDS011;5113;41.822;23.564;2023-03-31T05:54:30;20.20;;;12.50;;
10144;SDS011;5113;41.822;23.564;2023-03-31T05:57:37;23.40;;;14.47;;
10144;SDS011;5113;41.822;23.564;2023-03-31T06:00:43;12.97;;;8.43;;
10144;SDS011;5113;41.822;23.564;2023-03-31T06:03:49;6.17;;;5.10;;
10144;SDS011;5113;41.822;23.564;2023-03-31T06:06:56;18.47;;;11.43;;
10144;SDS011;5113;41.822;23.564;2023-03-31T06:10:05;22.60;;;13.80;;
10144;SDS011;5113;41.822;23.564;2023-03-31T06:13:14;28.47;;;15.17;;
10144;SDS011;5113;41.822;23.564;2023-03-31T06:16:20;9.83;;;8.43;;
10144;SDS011;5113;41.822;23.564;2023-03-31T06:19:27;10.47;;;7.83;;
10144;SDS011;5113;41.822;23.564;2023-03-31T06:22:33;11.73;;;8.23;;
10144;SDS011;5113;41.822;23.564;2023-03-31T06:25:41;7.97;;;6.23;;
10144;SDS011;5113;41.822;23.564;2023-03-31T06:28:55;109.33;;;45.20;;
10144;SDS011;5113;41.822;23.564;2023-03-31T06:32:01;12.67;;;7.53;;
10144;SDS011;5113;41.822;23.564;2023-03-31T06:35:09;18.17;;;9.90;;
10144;SDS011;5113;41.822;23.564;2023-03-31T06:38:15;30.30;;;17.53;;
10144;SDS011;5113;41.822;23.564;2023-03-31T06:41:23;11.27;;;7.67;;
10144;SDS011;5113;41.822;23.564;2023-03-31T06:44:30;11.80;;;7.27;;
10144;SDS011;5113;41.822;23.564;2023-03-31T06:47:36;9.70;;;6.30;;
10144;SDS011;5113;41.822;23.564;2023-03-31T06:50:45;9.40;;;6.00;;
10144;SDS011;5113;41.822;23.564;2023-03-31T06:53:51;13.90;;;8.17;;
10144;SDS011;5113;41.822;23.564;2023-03-31T06:56:59;8.93;;;5.07;;
10144;SDS011;5113;41.822;23.564;2023-03-31T07:00:06;6.27;;;5.53;;
10144;SDS011;5113;41.822;23.564;2023-03-31T07:03:13;5.77;;;4.83;;
10144;SDS011;5113;41.822;23.564;2023-03-31T07:06:22;6.93;;;5.60;;
10144;SDS011;5113;41.822;23.564;2023-03-31T07:09:28;7.50;;;5.37;;
10144;SDS011;5113;41.822;23.564;2023-03-31T07:12:36;7.70;;;5.67;;
10144;SDS011;5113;41.822;23.564;2023-03-31T07:15:42;5.23;;;4.17;;
10144;SDS011;5113;41.822;23.564;2023-03-31T07:18:49;7.87;;;5.00;;
10144;SDS011;5113;41.822;23.564;2023-03-31T07:21:58;18.30;;;10.33;;
10144;SDS011;5113;41.822;23.564;2023-03-31T07:25:05;5.53;;;3.67;;
10144;SDS011;5113;41.822;23.564;2023-03-31T07:28:13;9.00;;;5.13;;
10144;SDS011;5113;41.822;23.564;2023-03-31T07:31:19;14.87;;;7.83;;
10144;SDS011;5113;41.822;23.564;2023-03-31T07:34:26;18.97;;;7.73;;
10144;SDS011;5113;41.822;23.564;2023-03-31T07:37:33;4.20;;;3.40;;
10144;SDS011;5113;41.822;23.564;2023-03-31T07:40:40;14.90;;;7.30;;
10144;SDS011;5113;41.822;23.564;2023-03-31T07:44:06;3.00;;;2.43;;
10144;SDS011;5113;41.822;23.564;2023-03-31T07:47:13;6.83;;;4.90;;
10144;SDS011;5113;41.822;23.564;2023-03-31T07:50:20;4.40;;;2.77;;
10144;SDS011;5113;41.822;23.564;2023-03-31T07:53:27;13.00;;;6.37;;
10144;SDS011;5113;41.822;23.564;2023-03-31T07:56:33;8.73;;;4.17;;
10144;SDS011;5113;41.822;23.564;2023-03-31T07:59:41;3.60;;;3.30;;
10144;SDS011;5113;41.822;23.564;2023-03-31T08:02:47;5.87;;;3.07;;
10144;SDS011;5113;41.822;23.564;2023-03-31T08:05:54;14.80;;;5.40;;
10144;SDS011;5113;41.822;23.564;2023-03-31T08:09:00;6.27;;;4.27;;
10144;SDS011;5113;41.822;23.564;2023-03-31T08:12:08;5.77;;;3.13;;
10144;SDS011;5113;41.822;23.564;2023-03-31T08:15:16;4.87;;;3.73;;
10144;SDS011;5113;41.822;23.564;2023-03-31T08:18:23;8.37;;;3.90;;
10144;SDS011;5113;41.822;23.564;2023-03-31T08:21:29;9.50;;;5.53;;
10144;SDS011;5113;41.822;23.564;2023-03-31T08:24:35;5.30;;;4.57;;
10144;SDS011;5113;41.822;23.564;2023-03-31T08:27:41;12.40;;;5.13;;
10144;SDS011;5113;41.822;23.564;2023-03-31T08:30:48;3.63;;;3.03;;
10144;SDS011;5113;41.822;23.564;2023-03-31T08:33:55;5.27;;;3.97;;
10144;SDS011;5113;41.822;23.564;2023-03-31T08:37:02;6.13;;;4.43;;
10144;SDS011;5113;41.822;23.564;2023-03-31T08:40:10;12.20;;;5.27;;
10144;SDS011;5113;41.822;23.564;2023-03-31T08:43:22;4.53;;;3.53;;
10144;SDS011;5113;41.822;23.564;2023-03-31T08:46:35;9.67;;;5.67;;
10144;SDS011;5113;41.822;23.564;2023-03-31T08:49:44;8.73;;;5.37;;
10144;SDS011;5113;41.822;23.564;2023-03-31T08:52:56;8.63;;;4.60;;
10144;SDS011;5113;41.822;23.564;2023-03-31T08:56:11;10.70;;;5.27;;
10144;SDS011;5113;41.822;23.564;2023-03-31T08:59:25;7.77;;;5.60;;
10144;SDS011;5113;41.822;23.564;2023-03-31T09:02:37;7.10;;;4.40;;
10144;SDS011;5113;41.822;23.564;2023-03-31T09:05:54;9.00;;;4.90;;
10144;SDS011;5113;41.822;23.564;2023-03-31T09:09:05;7.43;;;6.07;;
10144;SDS011;5113;41.822;23.564;2023-03-31T09:12:16;12.03;;;8.47;;
10144;SDS011;5113;41.822;23.564;2023-03-31T09:15:27;11.50;;;5.90;;
10144;SDS011;5113;41.822;23.564;2023-03-31T09:18:36;8.10;;;5.03;;
10144;SDS011;5113;41.822;23.564;2023-03-31T09:21:44;93.43;;;40.87;;
10144;SDS011;5113;41.822;23.564;2023-03-31T09:24:55;49.60;;;27.93;;
10144;SDS011;5113;41.822;23.564;2023-03-31T09:28:08;13.40;;;10.30;;
10144;SDS011;5113;41.822;23.564;2023-03-31T09:31:18;7.90;;;6.00;;
10144;SDS011;5113;41.822;23.564;2023-03-31T09:34:29;5.27;;;3.97;;
10144;SDS011;5113;41.822;23.564;2023-03-31T09:37:39;14.73;;;7.90;;
10144;SDS011;5113;41.822;23.564;2023-03-31T09:40:46;9.80;;;5.87;;
10144;SDS011;5113;41.822;23.564;2023-03-31T09:43:53;7.03;;;4.83;;
10144;SDS011;5113;41.822;23.564;2023-03-31T09:47:00;9.77;;;7.87;;
10144;SDS011;5113;41.822;23.564;2023-03-31T09:50:09;7.20;;;4.70;;
10144;SDS011;5113;41.822;23.564;2023-03-31T09:53:17;9.10;;;4.33;;
10144;SDS011;5113;41.822;23.564;2023-03-31T09:56:33;11.73;;;6.13;;
10144;SDS011;5113;41.822;23.564;2023-03-31T09:59:50;7.73;;;3.80;;
10144;SDS011;5113;41.822;23.564;2023-03-31T10:03:00;10.17;;;5.30;;
10144;SDS011;5113;41.822;23.564;2023-03-31T10:06:14;4.53;;;3.77;;
10144;SDS011;5113;41.822;23.564;2023-03-31T10:09:23;6.77;;;5.07;;
10144;SDS011;5113;41.822;23.564;2023-03-31T10:12:32;3.57;;;3.27;;
10144;SDS011;5113;41.822;23.564;2023-03-31T10:15:39;7.17;;;4.33;;
10144;SDS011;5113;41.822;23.564;2023-03-31T10:18:46;5.30;;;3.97;;
10144;SDS011;5113;41.822;23.564;2023-03-31T10:21:57;5.10;;;4.40;;
10144;SDS011;5113;41.822;23.564;2023-03-31T10:25:07;3.73;;;3.07;;
10144;SDS011;5113;41.822;23.564;2023-03-31T10:28:16;3.40;;;3.10;;
10144;SDS011;5113;41.822;23.564;2023-03-31T10:31:25;8.70;;;4.80;;
10144;SDS011;5113;41.822;23.564;2023-03-31T10:34:40;9.60;;;5.73;;
10144;SDS011;5113;41.822;23.564;2023-03-31T10:37:48;7.40;;;5.07;;
10144;SDS011;5113;41.822;23.564;2023-03-31T10:40:59;2.87;;;2.60;;
10144;SDS011;5113;41.822;23.564;2023-03-31T10:44:05;12.97;;;5.93;;
10144;SDS011;5113;41.822;23.564;2023-03-31T10:47:33;5.13;;;2.37;;
10144;SDS011;5113;41.822;23.564;2023-03-31T10:50:39;5.13;;;3.50;;
10144;SDS011;5113;41.822;23.564;2023-03-31T10:53:48;4.57;;;3.63;;
10144;SDS011;5113;41.822;23.564;2023-03-31T10:56:55;4.90;;;3.23;;
10144;SDS011;5113;41.822;23.564;2023-03-31T11:00:08;5.10;;;3.50;;
10144;SDS011;5113;41.822;23.564;2023-03-31T11:03:48;7.27;;;2.70;;
10144;SDS011;5113;41.822;23.564;2023-03-31T11:07:06;7.37;;;4.70;;
10144;SDS011;5113;41.822;23.564;2023-03-31T11:10:36;2.53;;;2.33;;
10144;SDS011;5113;41.822;23.564;2023-03-31T11:13:54;3.80;;;3.43;;
10144;SDS011;5113;41.822;23.564;2023-03-31T11:17:07;5.90;;;3.30;;
10144;SDS011;5113;41.822;23.564;2023-03-31T11:20:24;4.50;;;3.03;;
10144;SDS011;5113;41.822;23.564;2023-03-31T11:23:39;12.33;;;7.77;;
10144;SDS011;5113;41.822;23.564;2023-03-31T11:26:48;4.10;;;3.37;;
10144;SDS011;5113;41.822;23.564;2023-03-31T11:30:06;2.90;;;2.60;;
10144;SDS011;5113;41.822;23.564;2023-03-31T11:33:30;6.03;;;4.10;;
10144;SDS011;5113;41.822;23.564;2023-03-31T11:37:05;2.20;;;2.03;;
10144;SDS011;5113;41.822;23.564;2023-03-31T11:40:26;2.63;;;2.40;;
10144;SDS011;5113;41.822;23.564;2023-03-31T11:43:46;3.10;;;2.80;;
10144;SDS011;5113;41.822;23.564;2023-03-31T11:46:55;3.30;;;3.00;;
10144;SDS011;5113;41.822;23.564;2023-03-31T11:50:08;2.63;;;2.30;;
10144;SDS011;5113;41.822;23.564;2023-03-31T11:53:19;1.87;;;1.60;;
10144;SDS011;5113;41.822;23.564;2023-03-31T11:56:31;4.77;;;4.17;;
10144;SDS011;5113;41.822;23.564;2023-03-31T11:59:40;3.90;;;3.23;;
10144;SDS011;5113;41.822;23.564;2023-03-31T12:02:50;4.17;;;3.77;;
10144;SDS011;5113;41.822;23.564;2023-03-31T12:06:02;3.93;;;3.20;;
10144;SDS011;5113;41.822;23.564;2023-03-31T12:09:16;3.10;;;2.80;;
10144;SDS011;5113;41.822;23.564;2023-03-31T12:12:29;3.53;;;3.03;;
10144;SDS011;5113;41.822;23.564;2023-03-31T12:15:40;5.60;;;3.70;;
10144;SDS011;5113;41.822;23.564;2023-03-31T12:18:56;7.67;;;5.93;;
10144;SDS011;5113;41.822;23.564;2023-03-31T12:22:10;5.07;;;3.03;;
10144;SDS011;5113;41.822;23.564;2023-03-31T12:25:21;38.37;;;20.97;;
10144;SDS011;5113;41.822;23.564;2023-03-31T12:28:30;8.03;;;5.13;;
10144;SDS011;5113;41.822;23.564;2023-03-31T12:31:37;4.17;;;3.13;;
10144;SDS011;5113;41.822;23.564;2023-03-31T12:34:47;7.73;;;5.60;;
10144;SDS011;5113;41.822;23.564;2023-03-31T12:38:03;3.97;;;3.53;;
10144;SDS011;5113;41.822;23.564;2023-03-31T12:41:26;8.20;;;7.37;;
10144;SDS011;5113;41.822;23.564;2023-03-31T12:44:45;9.33;;;6.13;;
10144;SDS011;5113;41.822;23.564;2023-03-31T12:48:05;20.03;;;11.53;;
10144;SDS011;5113;41.822;23.564;2023-03-31T12:51:37;7.60;;;5.37;;
10144;SDS011;5113;41.822;23.564;2023-03-31T12:58:43;3.53;;;3.03;;
10144;SDS011;5113;41.822;23.564;2023-03-31T13:05:42;13.87;;;8.60;;
10144;SDS011;5113;41.822;23.564;2023-03-31T13:08:53;16.20;;;8.47;;
10144;SDS011;5113;41.822;23.564;2023-03-31T13:12:05;13.20;;;6.17;;
10144;SDS011;5113;41.822;23.564;2023-03-31T13:15:13;12.80;;;6.33;;
10144;SDS011;5113;41.822;23.564;2023-03-31T13:18:20;19.60;;;9.27;;
10144;SDS011;5113;41.822;23.564;2023-03-31T13:21:27;12.70;;;7.87;;
10144;SDS011;5113;41.822;23.564;2023-03-31T13:24:34;20.00;;;9.63;;
10144;SDS011;5113;41.822;23.564;2023-03-31T13:27:45;11.07;;;7.00;;
10144;SDS011;5113;41.822;23.564;2023-03-31T13:30:56;9.67;;;5.93;;
10144;SDS011;5113;41.822;23.564;2023-03-31T13:34:05;12.73;;;8.13;;
10144;SDS011;5113;41.822;23.564;2023-03-31T13:37:14;11.73;;;6.50;;
10144;SDS011;5113;41.822;23.564;2023-03-31T13:47:49;9.80;;;5.47;;
10144;SDS011;5113;41.822;23.564;2023-03-31T13:51:14;6.63;;;3.70;;
10144;SDS011;5113;41.822;23.564;2023-03-31T13:58:36;6.83;;;4.87;;
10144;SDS011;5113;41.822;23.564;2023-03-31T14:02:12;9.03;;;4.13;;
10144;SDS011;5113;41.822;23.564;2023-03-31T14:05:42;10.90;;;6.83;;
10144;SDS011;5113;41.822;23.564;2023-03-31T14:08:52;10.50;;;7.80;;
10144;SDS011;5113;41.822;23.564;2023-03-31T14:12:17;12.33;;;6.77;;
10144;SDS011;5113;41.822;23.564;2023-03-31T14:15:27;19.43;;;5.70;;
10144;SDS011;5113;41.822;23.564;2023-03-31T14:18:36;22.30;;;11.93;;
10144;SDS011;5113;41.822;23.564;2023-03-31T14:21:49;5.77;;;4.60;;
10144;SDS011;5113;41.822;23.564;2023-03-31T14:25:05;6.03;;;3.90;;
10144;SDS011;5113;41.822;23.564;2023-03-31T14:28:25;2.90;;;2.70;;
10144;SDS011;5113;41.822;23.564;2023-03-31T14:31:44;6.43;;;5.23;;
10144;SDS011;5113;41.822;23.564;2023-03-31T14:35:00;15.37;;;8.83;;
10144;SDS011;5113;41.822;23.564;2023-03-31T14:38:20;7.87;;;4.17;;
10144;SDS011;5113;41.822;23.564;2023-03-31T14:41:28;9.93;;;7.67;;
10144;SDS011;5113;41.822;23.564;2023-03-31T14:44:35;7.30;;;5.03;;
10144;SDS011;5113;41.822;23.564;2023-03-31T14:47:42;7.77;;;4.97;;
10144;SDS011;5113;41.822;23.564;2023-03-31T14:51:00;11.67;;;6.77;;
10144;SDS011;5113;41.822;23.564;2023-03-31T14:54:15;13.60;;;8.20;;
10144;SDS011;5113;41.822;23.564;2023-03-31T14:57:24;22.10;;;17.20;;
10144;SDS011;5113;41.822;23.564;2023-03-31T15:00:35;11.20;;;7.20;;
10144;SDS011;5113;41.822;23.564;2023-03-31T15:03:44;11.07;;;5.87;;
10144;SDS011;5113;41.822;23.564;2023-03-31T15:06:51;10.77;;;6.13;;
10144;SDS011;5113;41.822;23.564;2023-03-31T15:09:59;16.67;;;13.40;;
10144;SDS011;5113;41.822;23.564;2023-03-31T15:13:07;9.80;;;6.77;;
10144;SDS011;5113;41.822;23.564;2023-03-31T15:16:19;9.03;;;7.40;;
10144;SDS011;5113;41.822;23.564;2023-03-31T15:19:32;54.43;;;33.33;;
10144;SDS011;5113;41.822;23.564;2023-03-31T15:22:40;13.17;;;9.30;;
10144;SDS011;5113;41.822;23.564;2023-03-31T15:25:48;8.67;;;7.87;;
10144;SDS011;5113;41.822;23.564;2023-03-31T15:28:55;7.93;;;6.73;;
10144;SDS011;5113;41.822;23.564;2023-03-31T15:32:07;5.53;;;3.30;;
10144;SDS011;5113;41.822;23.564;2023-03-31T15:35:20;5.43;;;4.07;;
10144;SDS011;5113;41.822;23.564;2023-03-31T15:38:29;2.70;;;2.50;;
10144;SDS011;5113;41.822;23.564;2023-03-31T15:41:38;68.43;;;28.70;;
10144;SDS011;5113;41.822;23.564;2023-03-31T15:44:44;11.33;;;5.57;;
10144;SDS011;5113;41.822;23.564;2023-03-31T15:47:52;14.00;;;6.50;;
10144;SDS011;5113;41.822;23.564;2023-03-31T15:50:59;27.07;;;16.53;;
10144;SDS011;5113;41.822;23.564;2023-03-31T15:54:13;10.87;;;7.27;;
10144;SDS011;5113;41.822;23.564;2023-03-31T15:57:35;31.87;;;20.23;;
10144;SDS011;5113;41.822;23.564;2023-03-31T16:00:43;22.40;;;13.93;;
10144;SDS011;5113;41.822;23.564;2023-03-31T16:03:51;13.03;;;9.37;;
10144;SDS011;5113;41.822;23.564;2023-03-31T16:06:58;14.30;;;9.43;;
10144;SDS011;5113;41.822;23.564;2023-03-31T16:10:14;13.50;;;8.07;;
10144;SDS011;5113;41.822;23.564;2023-03-31T16:13:24;11.63;;;7.60;;
10144;SDS011;5113;41.822;23.564;2023-03-31T16:16:34;10.37;;;7.17;;
10144;SDS011;5113;41.822;23.564;2023-03-31T16:19:41;38.63;;;16.83;;
10144;SDS011;5113;41.822;23.564;2023-03-31T16:22:51;26.77;;;13.73;;
10144;SDS011;5113;41.822;23.564;2023-03-31T16:25:59;36.33;;;16.70;;
10144;SDS011;5113;41.822;23.564;2023-03-31T16:29:08;18.97;;;12.00;;
10144;SDS011;5113;41.822;23.564;2023-03-31T16:32:15;24.27;;;14.67;;
10144;SDS011;5113;41.822;23.564;2023-03-31T16:35:28;38.10;;;21.47;;
10144;SDS011;5113;41.822;23.564;2023-03-31T16:38:35;31.50;;;18.43;;
10144;SDS011;5113;41.822;23.564;2023-03-31T16:41:41;35.17;;;22.53;;
10144;SDS011;5113;41.822;23.564;2023-03-31T16:44:48;35.07;;;21.73;;
10144;SDS011;5113;41.822;23.564;2023-03-31T16:48:15;69.27;;;40.50;;
10144;SDS011;5113;41.822;23.564;2023-03-31T16:51:23;65.97;;;38.27;;
10144;SDS011;5113;41.822;23.564;2023-03-31T16:54:29;101.63;;;55.17;;
10144;SDS011;5113;41.822;23.564;2023-03-31T16:57:36;84.57;;;48.03;;
10144;SDS011;5113;41.822;23.564;2023-03-31T17:00:44;56.33;;;35.87;;
10144;SDS011;5113;41.822;23.564;2023-03-31T17:03:51;87.90;;;51.10;;
10144;SDS011;5113;41.822;23.564;2023-03-31T17:06:57;95.50;;;54.53;;
10144;SDS011;5113;41.822;23.564;2023-03-31T17:10:03;67.70;;;32.97;;
10144;SDS011;5113;41.822;23.564;2023-03-31T17:13:11;43.83;;;27.30;;
10144;SDS011;5113;41.822;23.564;2023-03-31T17:16:19;49.77;;;26.63;;
10144;SDS011;5113;41.822;23.564;2023-03-31T17:19:43;42.33;;;23.33;;
10144;SDS011;5113;41.822;23.564;2023-03-31T17:22:49;40.87;;;22.67;;
10144;SDS011;5113;41.822;23.564;2023-03-31T17:25:56;67.23;;;34.83;;
10144;SDS011;5113;41.822;23.564;2023-03-31T17:29:02;69.93;;;37.37;;
10144;SDS011;5113;41.822;23.564;2023-03-31T17:32:10;97.20;;;53.30;;
10144;SDS011;5113;41.822;23.564;2023-03-31T17:35:18;61.83;;;34.93;;
10144;SDS011;5113;41.822;23.564;2023-03-31T17:38:26;54.27;;;33.10;;
10144;SDS011;5113;41.822;23.564;2023-03-31T17:41:32;47.27;;;26.57;;
10144;SDS011;5113;41.822;23.564;2023-03-31T17:44:38;57.47;;;28.60;;
10144;SDS011;5113;41.822;23.564;2023-03-31T17:47:47;16.90;;;10.80;;
10144;SDS011;5113;41.822;23.564;2023-03-31T17:50:53;16.30;;;9.10;;
10144;SDS011;5113;41.822;23.564;2023-03-31T17:54:00;25.00;;;14.27;;
10144;SDS011;5113;41.822;23.564;2023-03-31T17:57:07;24.23;;;13.53;;
10144;SDS011;5113;41.822;23.564;2023-03-31T18:00:14;17.00;;;11.67;;
10144;SDS011;5113;41.822;23.564;2023-03-31T18:03:22;27.77;;;12.43;;
10144;SDS011;5113;41.822;23.564;2023-03-31T18:06:28;21.60;;;15.20;;
10144;SDS011;5113;41.822;23.564;2023-03-31T18:09:35;17.17;;;11.83;;
10144;SDS011;5113;41.822;23.564;2023-03-31T18:12:41;51.00;;;29.03;;
10144;SDS011;5113;41.822;23.564;2023-03-31T18:15:49;43.77;;;24.10;;
10144;SDS011;5113;41.822;23.564;2023-03-31T18:18:58;39.80;;;22.50;;
10144;SDS011;5113;41.822;23.564;2023-03-31T18:22:05;73.73;;;41.40;;
10144;SDS011;5113;41.822;23.564;2023-03-31T18:25:11;103.40;;;54.47;;
10144;SDS011;5113;41.822;23.564;2023-03-31T18:28:19;118.73;;;60.10;;
10144;SDS011;5113;41.822;23.564;2023-03-31T18:31:25;145.20;;;75.40;;
10144;SDS011;5113;41.822;23.564;2023-03-31T18:34:33;104.30;;;55.67;;
10144;SDS011;5113;41.822;23.564;2023-03-31T18:37:40;65.03;;;35.27;;
10144;SDS011;5113;41.822;23.564;2023-03-31T18:40:46;80.53;;;40.53;;
10144;SDS011;5113;41.822;23.564;2023-03-31T18:43:54;79.43;;;40.97;;
10144;SDS011;5113;41.822;23.564;2023-03-31T18:47:00;80.47;;;40.17;;
10144;SDS011;5113;41.822;23.564;2023-03-31T18:50:09;84.33;;;41.83;;
10144;SDS011;5113;41.822;23.564;2023-03-31T18:53:17;79.73;;;42.63;;
10144;SDS011;5113;41.822;23.564;2023-03-31T18:56:24;94.70;;;47.63;;
10144;SDS011;5113;41.822;23.564;2023-03-31T18:59:30;125.27;;;58.40;;
10144;SDS011;5113;41.822;23.564;2023-03-31T19:02:37;104.70;;;50.47;;
10144;SDS011;5113;41.822;23.564;2023-03-31T19:05:45;95.00;;;47.20;;
10144;SDS011;5113;41.822;23.564;2023-03-31T19:08:51;129.83;;;56.93;;
10144;SDS011;5113;41.822;23.564;2023-03-31T19:12:00;128.80;;;62.43;;
10144;SDS011;5113;41.822;23.564;2023-03-31T19:15:07;121.17;;;58.93;;